Florence, Texas
Current Conditions -  °F | °C
As of 2:49 PM on Sunday 23 Nov 2014 (Local Time) from KGTU Reporting Station
Clear Clear  
Wind Chill: 81°   Ceiling: Unl
Heat Index: 81°   Visibility: 10mi
Dew Point: 41°   Wind: 17mph
Humidity: 24%   Direction: 260°W
Pressure: 29.51"   Gusts: 25mph
Location:  30.84°N, 97.79°W
Report Text: KGTU 232049Z 26015G22KT 10SM CLR 27/05 A2951
Loading
Personal Weather Stations






























Interactive Weather Map New forecast layout! Learn more

10-Day Weather Forecast

Advertisements
Track Severe Weather on mobile